Map

Track Data

SID SEASON NUMBER BASIN SUBBASIN NAME ISO_TIME NATURE LAT LON WMO_WIND WMO_PRES WMO_AGENCY TRACK_TYPE DIST2LAND LANDFALL IFLAG USA_AGENCY USA_ATCF_ID USA_LAT USA_LON USA_RECORD USA_STATUS USA_WIND USA_PRES USA_SSHS USA_R34_NE USA_R34_SE USA_R34_SW USA_R34_NW USA_R50_NE USA_R50_SE USA_R50_SW USA_R50_NW USA_R64_NE USA_R64_SE USA_R64_SW USA_R64_NW USA_POCI USA_ROCI USA_RMW USA_EYE TOKYO_LAT TOKYO_LON TOKYO_GRADE TOKYO_WIND TOKYO_PRES TOKYO_R50_DIR TOKYO_R50_LONG TOKYO_R50_SHORT TOKYO_R30_DIR TOKYO_R30_LONG TOKYO_R30_SHORT TOKYO_LAND CMA_LAT CMA_LON CMA_CAT CMA_WIND CMA_PRES HKO_LAT HKO_LON HKO_CAT HKO_WIND HKO_PRES NEWDELHI_LAT NEWDELHI_LON NEWDELHI_GRADE NEWDELHI_WIND NEWDELHI_PRES NEWDELHI_CI NEWDELHI_DP NEWDELHI_POCI REUNION_LAT REUNION_LON REUNION_TYPE REUNION_WIND REUNION_PRES REUNION_TNUM REUNION_CI REUNION_RMW REUNION_R34_NE REUNION_R34_SE REUNION_R34_SW REUNION_R34_NW REUNION_R50_NE REUNION_R50_SE REUNION_R50_SW REUNION_R50_NW REUNION_R64_NE REUNION_R64_SE REUNION_R64_SW REUNION_R64_NW BOM_LAT BOM_LON BOM_TYPE BOM_WIND BOM_PRES BOM_TNUM BOM_CI BOM_RMW BOM_R34_NE BOM_R34_SE BOM_R34_SW BOM_R34_NW BOM_R50_NE BOM_R50_SE BOM_R50_SW BOM_R50_NW BOM_R64_NE BOM_R64_SE BOM_R64_SW BOM_R64_NW BOM_ROCI BOM_POCI BOM_EYE BOM_POS_METHOD BOM_PRES_METHOD NADI_LAT NADI_LON NADI_CAT NADI_WIND NADI_PRES WELLINGTON_LAT WELLINGTON_LON WELLINGTON_WIND WELLINGTON_PRES DS824_LAT DS824_LON DS824_STAGE DS824_WIND DS824_PRES TD9636_LAT TD9636_LON TD9636_STAGE TD9636_WIND TD9636_PRES TD9635_LAT TD9635_LON TD9635_WIND TD9635_PRES TD9635_ROCI NEUMANN_LAT NEUMANN_LON NEUMANN_CLASS NEUMANN_WIND NEUMANN_PRES MLC_LAT MLC_LON MLC_CLASS MLC_WIND MLC_PRES USA_GUST BOM_GUST BOM_GUST_PER REUNION_GUST REUNION_GUST_PER USA_SEAHGT USA_SEARAD_NE USA_SEARAD_SE USA_SEARAD_SW USA_SEARAD_NW STORM_SPEED STORM_DIR
1954169N26279 1954 22 NA NA NOT_NAMED 1954-06-18 00:00:00 TS 25.8000 -80.8000 25 hurdat_atl main 0 0 O_____________ hurdat_atl AL021954 25.8000 -80.8000 TD 25 -1 1 0
1954169N26279 1954 22 NA NA NOT_NAMED 1954-06-18 03:00:00 TS 25.7425 -80.8000 main 0 0 P_____________ AL021954 25.7425 -80.8000 TD 25 -1 1 0
1954169N26279 1954 22 NA NA NOT_NAMED 1954-06-18 06:00:00 TS 25.7000 -80.8000 25 hurdat_atl main 0 0 O_____________ hurdat_atl AL021954 25.7000 -80.8000 TD 25 -1 1 0
1954169N26279 1954 22 NA NA NOT_NAMED 1954-06-18 09:00:00 TS 25.6850 -80.8000 main 0 0 P_____________ AL021954 25.6850 -80.8000 TD 27 -1 0 0
1954169N26279 1954 22 NA NA NOT_NAMED 1954-06-18 12:00:00 TS 25.7000 -80.8000 30 hurdat_atl main 0 0 O_____________ hurdat_atl AL021954 25.7000 -80.8000 TD 30 -1 1 18
1954169N26279 1954 22 NA NA NOT_NAMED 1954-06-18 15:00:00 TS 25.7500 -80.8000 main 0 0 P_____________ AL021954 25.7500 -80.8000 TD 30 -1 1 0
1954169N26279 1954 22 NA NA NOT_NAMED 1954-06-18 18:00:00 TS 25.8000 -80.8000 30 hurdat_atl main 0 0 O_____________ hurdat_atl AL021954 25.8000 -80.8000 TD 30 -1 1 27
1954169N26279 1954 22 NA NA NOT_NAMED 1954-06-18 21:00:00 TS 25.8000 -80.8000 main 0 0 P_____________ AL021954 25.8000 -80.8000 TD 30 -1 0 0
1954169N26279 1954 22 NA NA NOT_NAMED 1954-06-19 00:00:00 TS 25.8000 -80.8000 30 hurdat_atl main 0 0 O_____________ hurdat_atl AL021954 25.8000 -80.8000 TD 30 -1 0 332
1954169N26279 1954 22 NA NA NOT_NAMED 1954-06-19 03:00:00 TS 25.8350 -80.8075 main 0 0 P_____________ AL021954 25.8350 -80.8075 TD 30 -1 1 0
1954169N26279 1954 22 NA NA NOT_NAMED 1954-06-19 06:00:00 TS 25.9000 -80.8000 30 hurdat_atl main 0 0 O_____________ hurdat_atl AL021954 25.9000 -80.8000 TD 30 -1 1 19
1954169N26279 1954 22 NA NA NOT_NAMED 1954-06-19 09:00:00 TS 25.9700 -80.7575 main 0 0 P_____________ AL021954 25.9700 -80.7575 TD 30 -1 2 25
1954169N26279 1954 22 NA NA NOT_NAMED 1954-06-19 12:00:00 TS 26.1000 -80.7000 30 hurdat_atl main 0 0 O_____________ hurdat_atl AL021954 26.1000 -80.7000 TD 30 -1 4 14
1954169N26279 1954 22 NA NA NOT_NAMED 1954-06-19 15:00:00 TS 26.3275 -80.6575 main 0 0 P_____________ AL021954 26.3275 -80.6575 TD 30 -1 5 10
1954169N26279 1954 22 NA NA NOT_NAMED 1954-06-19 18:00:00 TS 26.6000 -80.6000 30 hurdat_atl main 0 0 O_____________ hurdat_atl AL021954 26.6000 -80.6000 TD 30 -1 5 13
1954169N26279 1954 22 NA NA NOT_NAMED 1954-06-19 21:00:00 TS 26.8500 -80.5150 main 0 0 P_____________ AL021954 26.8500 -80.5150 TD 30 -1 5 20
1954169N26279 1954 22 NA NA NOT_NAMED 1954-06-20 00:00:00 TS 27.1000 -80.4000 30 hurdat_atl main 0 0 O_____________ hurdat_atl AL021954 27.1000 -80.4000 TD 30 -1 6 22
1954169N26279 1954 22 NA NA NOT_NAMED 1954-06-20 03:00:00 TS 27.3574 -80.2799 main 0 0 P_____________ AL021954 27.3574 -80.2799 TD 30 -1 6 28
1954169N26279 1954 22 NA NA NOT_NAMED 1954-06-20 06:00:00 TS 27.6000 -80.1000 30 hurdat_atl main 29 29 O_____________ hurdat_atl AL021954 27.6000 -80.1000 TD 30 -1 6 42
1954169N26279 1954 22 NA NA NOT_NAMED 1954-06-20 09:00:00 TS 27.8075 -79.8299 main 63 63 P_____________ AL021954 27.8075 -79.8299 TD 32 -1 7 53
1954169N26279 1954 22 NA NA NOT_NAMED 1954-06-20 12:00:00 TS 28.0000 -79.5000 35 hurdat_atl main 98 98 O_____________ hurdat_atl AL021954 28.0000 -79.5000 TS 35 0 7 56
1954169N26279 1954 22 NA NA NOT_NAMED 1954-06-20 15:00:00 TS 28.1998 -79.1723 main 131 131 P_____________ AL021954 28.1998 -79.1723 TS 40 0 7 57
1954169N26279 1954 22 NA NA NOT_NAMED 1954-06-20 18:00:00 TS 28.4000 -78.8000 45 hurdat_atl main 166 166 O_____________ hurdat_atl AL021954 28.4000 -78.8000 TS 45 0 8 61
1954169N26279 1954 22 NA NA NOT_NAMED 1954-06-20 21:00:00 TS 28.6000 -78.3649 main 205 205 P_____________ AL021954 28.6000 -78.3649 TS 47 0 9 63
1954169N26279 1954 22 NA NA NOT_NAMED 1954-06-21 00:00:00 TS 28.8000 -77.9000 50 hurdat_atl main 255 255 O_____________ hurdat_atl AL021954 28.8000 -77.9000 TS 50 0 9 64
1954169N26279 1954 22 NA NA NOT_NAMED 1954-06-21 03:00:00 TS 28.9925 -77.4348 main 306 306 P_____________ AL021954 28.9925 -77.4348 TS 50 0 9 63
1954169N26279 1954 22 NA NA NOT_NAMED 1954-06-21 06:00:00 TS 29.2000 -77.0000 50 hurdat_atl main 349 349 O_____________ hurdat_atl AL021954 29.2000 -77.0000 TS 50 0 8 59
1954169N26279 1954 22 NA NA NOT_NAMED 1954-06-21 09:00:00 TS 29.4274 -76.6124 main 392 392 P_____________ AL021954 29.4274 -76.6124 TS 50 0 8 51
1954169N26279 1954 22 NA NA NOT_NAMED 1954-06-21 12:00:00 TS 29.7000 -76.3000 50 hurdat_atl main 428 428 O_____________ hurdat_atl AL021954 29.7000 -76.3000 TS 50 0 8 39
1954169N26279 1954 22 NA NA NOT_NAMED 1954-06-21 15:00:00 TS 30.0274 -76.0624 main 457 437 P_____________ AL021954 30.0274 -76.0624 TS 50 0 8 26
1954169N26279 1954 22 NA NA NOT_NAMED 1954-06-21 18:00:00 TS 30.4000 -75.9000 50 hurdat_atl main 437 402 O_____________ hurdat_atl AL021954 30.4000 -75.9000 TS 50 0 8 18
1954169N26279 1954 22 NA NA NOT_NAMED 1954-06-21 21:00:00 TS 30.7850 -75.7774 main 402 370 P_____________ AL021954 30.7850 -75.7774 TS 50 0 8 12
1954169N26279 1954 22 NA NA NOT_NAMED 1954-06-22 00:00:00 TS 31.2000 -75.7000 50 hurdat_atl main 370 334 O_____________ hurdat_atl AL021954 31.2000 -75.7000 TS 50 0 9 7
1954169N26279 1954 22 NA NA NOT_NAMED 1954-06-22 03:00:00 TS 31.6500 -75.6498 main 340 300 P_____________ AL021954 31.6500 -75.6498 TS 50 0 9 5
1954169N26279 1954 22 NA NA NOT_NAMED 1954-06-22 06:00:00 TS 32.1000 -75.6000 50 hurdat_atl main 300 262 O_____________ hurdat_atl AL021954 32.1000 -75.6000 TS 50 0 9 7
1954169N26279 1954 22 NA NA NOT_NAMED 1954-06-22 09:00:00 TS 32.4999 -75.5296 main 262 224 P_____________ AL021954 32.4999 -75.5296 TS 52 0 8 12
1954169N26279 1954 22 NA NA NOT_NAMED 1954-06-22 12:00:00 TS 32.9000 -75.4000 55 hurdat_atl main 224 196 O_____________ hurdat_atl AL021954 32.9000 -75.4000 TS 55 0 9 18
1954169N26279 1954 22 NA NA NOT_NAMED 1954-06-22 15:00:00 TS 33.3348 -75.2020 main 196 177 P_____________ AL021954 33.3348 -75.2020 TS 57 0 10 25
1954169N26279 1954 22 NA NA NOT_NAMED 1954-06-22 18:00:00 TS 33.8000 -74.9000 60 hurdat_atl main 177 169 O_____________ hurdat_atl AL021954 33.8000 -74.9000 TS 60 0 11 31
1954169N26279 1954 22 NA NA NOT_NAMED 1954-06-22 21:00:00 TS 34.2846 -74.5167 main 177 169 P_____________ AL021954 34.2846 -74.5167 TS 60 0 12 37
1954169N26279 1954 22 NA NA NOT_NAMED 1954-06-23 00:00:00 TS 34.8000 -74.0000 60 hurdat_atl main 175 175 O_____________ hurdat_atl AL021954 34.8000 -74.0000 TS 60 0 14 42
1954169N26279 1954 22 NA NA NOT_NAMED 1954-06-23 03:00:00 TS 35.3423 -73.3594 main 197 197 P_____________ AL021954 35.3423 -73.3594 TS 57 0 16 46
1954169N26279 1954 22 NA NA NOT_NAMED 1954-06-23 06:00:00 TS 35.9000 -72.6000 55 hurdat_atl main 260 260 O_____________ hurdat_atl AL021954 35.9000 -72.6000 TS 55 0 17 50
1954169N26279 1954 22 NA NA NOT_NAMED 1954-06-23 09:00:00 TS 36.4274 -71.7710 main 338 338 P_____________ AL021954 36.4274 -71.7710 TS 52 0 18 51
1954169N26279 1954 22 NA NA NOT_NAMED 1954-06-23 12:00:00 TS 37.0000 -70.9000 50 hurdat_atl main 396 396 O_____________ hurdat_atl AL021954 37.0000 -70.9000 TS 50 0 18 50
1954169N26279 1954 22 NA NA NOT_NAMED 1954-06-23 15:00:00 TS 37.5870 -70.0459 main 420 375 P_____________ AL021954 37.5870 -70.0459 TS 50 0 19 44
1954169N26279 1954 22 NA NA NOT_NAMED 1954-06-23 18:00:00 TS 38.4000 -69.2000 50 hurdat_atl main 367 269 O_____________ hurdat_atl AL021954 38.4000 -69.2000 TS 50 0 25 33
1954169N26279 1954 22 NA NA NOT_NAMED 1954-06-23 21:00:00 TS 39.6546 -68.3446 main 264 218 P_____________ AL021954 39.6546 -68.3446 TS 47 0 29 27
1954169N26279 1954 22 NA NA NOT_NAMED 1954-06-24 00:00:00 TS 41.0000 -67.5000 45 hurdat_atl main 222 185 O_____________ hurdat_atl AL021954 41.0000 -67.5000 TS 45 0 27 28
1954169N26279 1954 22 NA NA NOT_NAMED 1954-06-24 03:00:00 TS 42.0070 -66.6724 main 185 68 P_____________ AL021954 42.0070 -66.6724 TS 42 0 23 31
1954169N26279 1954 22 NA NA NOT_NAMED 1954-06-24 06:00:00 ET 43.0000 -65.9000 40 hurdat_atl main 57 0 O_____________ hurdat_atl AL021954 43.0000 -65.9000 EX 40 -4 25 26
1954169N26279 1954 22 NA NA NOT_NAMED 1954-06-24 09:00:00 ET 44.2497 -65.1556 main 0 0 P_____________ AL021954 44.2497 -65.1556 EX 37 -4 27 22
1954169N26279 1954 22 NA NA NOT_NAMED 1954-06-24 12:00:00 ET 45.5000 -64.5000 35 hurdat_atl main 0 0 O_____________ hurdat_atl AL021954 45.5000 -64.5000 EX 35 -4 24 20
1954169N26279 1954 22 NA NA NOT_NAMED 1954-06-24 15:00:00 ET 46.5369 -63.9512 main 0 0 P_____________ AL021954 46.5369 -63.9512 EX 32 -4 21 19
1954169N26279 1954 22 NA NA NOT_NAMED 1954-06-24 18:00:00 ET 47.5000 -63.5000 30 hurdat_atl main 67 67 O_____________ hurdat_atl AL021954 47.5000 -63.5000 EX 30 -4 20 17
1954169N26279 1954 22 NA NA NOT_NAMED 1954-06-24 21:00:00 ET 48.4879 -63.0940 main 79 0 P_____________ AL021954 48.4879 -63.0940 EX 30 -4 21 15
1954169N26279 1954 22 NA NA NOT_NAMED 1954-06-25 00:00:00 ET 49.5000 -62.7000 30 hurdat_atl main 0 O_____________ hurdat_atl AL021954 49.5000 -62.7000 EX 30 -4 21 14

About IBTrACS Database

This database is a web-friendly format of International Best Track Archive for Climate Stewardship (IBTrACS), a global best track data archive curated by NOAA dating back to 1842.

Updated: 2021-12-08